sensor_id;sensor_type;location;lat;lon;timestamp;P1;durP1;ratioP1;P2;durP2;ratioP2
5819;SDS011;2936;47.348;9.640;2022-09-09T00:01:37;5.03;;;2.40;;
5819;SDS011;2936;47.348;9.640;2022-09-09T00:04:10;6.30;;;2.17;;
5819;SDS011;2936;47.348;9.640;2022-09-09T00:06:43;5.93;;;2.57;;
5819;SDS011;2936;47.348;9.640;2022-09-09T00:09:12;4.97;;;2.77;;
5819;SDS011;2936;47.348;9.640;2022-09-09T00:11:41;2.77;;;2.57;;
5819;SDS011;2936;47.348;9.640;2022-09-09T00:14:13;4.30;;;2.40;;
5819;SDS011;2936;47.348;9.640;2022-09-09T00:16:44;3.33;;;2.30;;
5819;SDS011;2936;47.348;9.640;2022-09-09T00:19:15;4.37;;;2.37;;
5819;SDS011;2936;47.348;9.640;2022-09-09T00:21:49;2.30;;;2.20;;
5819;SDS011;2936;47.348;9.640;2022-09-09T00:24:24;2.37;;;2.27;;
5819;SDS011;2936;47.348;9.640;2022-09-09T00:26:55;2.17;;;1.93;;
5819;SDS011;2936;47.348;9.640;2022-09-09T00:29:28;4.87;;;2.53;;
5819;SDS011;2936;47.348;9.640;2022-09-09T00:32:07;3.00;;;2.30;;
5819;SDS011;2936;47.348;9.640;2022-09-09T00:34:37;2.83;;;1.97;;
5819;SDS011;2936;47.348;9.640;2022-09-09T00:37:08;2.57;;;2.37;;
5819;SDS011;2936;47.348;9.640;2022-09-09T00:39:37;2.30;;;2.20;;
5819;SDS011;2936;47.348;9.640;2022-09-09T00:42:10;3.33;;;2.50;;
5819;SDS011;2936;47.348;9.640;2022-09-09T00:44:44;2.73;;;2.50;;
5819;SDS011;2936;47.348;9.640;2022-09-09T00:47:18;3.13;;;2.23;;
5819;SDS011;2936;47.348;9.640;2022-09-09T00:49:50;3.73;;;2.47;;
5819;SDS011;2936;47.348;9.640;2022-09-09T00:52:23;5.43;;;2.20;;
5819;SDS011;2936;47.348;9.640;2022-09-09T00:54:55;4.70;;;3.40;;
5819;SDS011;2936;47.348;9.640;2022-09-09T00:57:25;2.77;;;2.67;;
5819;SDS011;2936;47.348;9.640;2022-09-09T00:59:58;2.30;;;2.20;;
5819;SDS011;2936;47.348;9.640;2022-09-09T01:02:31;9.37;;;2.40;;
5819;SDS011;2936;47.348;9.640;2022-09-09T01:05:04;2.60;;;2.40;;
5819;SDS011;2936;47.348;9.640;2022-09-09T01:07:33;2.53;;;2.33;;
5819;SDS011;2936;47.348;9.640;2022-09-09T01:10:03;3.20;;;2.30;;
5819;SDS011;2936;47.348;9.640;2022-09-09T01:12:35;4.40;;;2.20;;
5819;SDS011;2936;47.348;9.640;2022-09-09T01:15:11;3.13;;;2.57;;
5819;SDS011;2936;47.348;9.640;2022-09-09T01:17:46;3.87;;;2.73;;
5819;SDS011;2936;47.348;9.640;2022-09-09T01:20:17;2.93;;;2.73;;
5819;SDS011;2936;47.348;9.640;2022-09-09T01:22:49;2.40;;;2.30;;
5819;SDS011;2936;47.348;9.640;2022-09-09T01:25:25;3.93;;;3.63;;
5819;SDS011;2936;47.348;9.640;2022-09-09T01:27:56;3.50;;;2.60;;
5819;SDS011;2936;47.348;9.640;2022-09-09T01:30:24;3.10;;;2.30;;
5819;SDS011;2936;47.348;9.640;2022-09-09T01:32:53;2.60;;;2.30;;
5819;SDS011;2936;47.348;9.640;2022-09-09T01:35:27;8.40;;;2.63;;
5819;SDS011;2936;47.348;9.640;2022-09-09T01:37:56;3.37;;;2.10;;
5819;SDS011;2936;47.348;9.640;2022-09-09T01:40:24;2.27;;;2.00;;
5819;SDS011;2936;47.348;9.640;2022-09-09T01:42:52;2.87;;;2.30;;
5819;SDS011;2936;47.348;9.640;2022-09-09T01:45:21;3.63;;;2.63;;
5819;SDS011;2936;47.348;9.640;2022-09-09T01:47:48;3.83;;;2.73;;
5819;SDS011;2936;47.348;9.640;2022-09-09T01:50:16;2.37;;;2.17;;
5819;SDS011;2936;47.348;9.640;2022-09-09T01:52:44;2.40;;;2.30;;
5819;SDS011;2936;47.348;9.640;2022-09-09T01:55:14;3.40;;;3.10;;
5819;SDS011;2936;47.348;9.640;2022-09-09T01:57:43;5.60;;;3.03;;
5819;SDS011;2936;47.348;9.640;2022-09-09T02:00:16;4.13;;;2.57;;
5819;SDS011;2936;47.348;9.640;2022-09-09T02:02:47;2.77;;;2.57;;
5819;SDS011;2936;47.348;9.640;2022-09-09T02:05:17;2.53;;;2.43;;
5819;SDS011;2936;47.348;9.640;2022-09-09T02:07:50;2.60;;;2.50;;
5819;SDS011;2936;47.348;9.640;2022-09-09T02:10:20;5.90;;;2.90;;
5819;SDS011;2936;47.348;9.640;2022-09-09T02:12:49;2.67;;;2.47;;
5819;SDS011;2936;47.348;9.640;2022-09-09T02:15:19;4.20;;;2.83;;
5819;SDS011;2936;47.348;9.640;2022-09-09T02:17:49;6.93;;;2.77;;
5819;SDS011;2936;47.348;9.640;2022-09-09T02:20:17;3.90;;;2.30;;
5819;SDS011;2936;47.348;9.640;2022-09-09T02:22:46;2.87;;;2.67;;
5819;SDS011;2936;47.348;9.640;2022-09-09T02:25:15;6.80;;;2.50;;
5819;SDS011;2936;47.348;9.640;2022-09-09T02:27:45;6.40;;;2.93;;
5819;SDS011;2936;47.348;9.640;2022-09-09T02:30:13;2.80;;;2.60;;
5819;SDS011;2936;47.348;9.640;2022-09-09T02:32:41;2.63;;;2.53;;
5819;SDS011;2936;47.348;9.640;2022-09-09T02:35:12;4.50;;;2.70;;
5819;SDS011;2936;47.348;9.640;2022-09-09T02:37:41;2.27;;;2.17;;
5819;SDS011;2936;47.348;9.640;2022-09-09T02:40:11;12.97;;;2.93;;
5819;SDS011;2936;47.348;9.640;2022-09-09T02:42:40;2.90;;;2.70;;
5819;SDS011;2936;47.348;9.640;2022-09-09T02:45:10;4.10;;;2.40;;
5819;SDS011;2936;47.348;9.640;2022-09-09T02:47:39;3.33;;;2.73;;
5819;SDS011;2936;47.348;9.640;2022-09-09T02:50:12;4.23;;;2.30;;
5819;SDS011;2936;47.348;9.640;2022-09-09T02:52:43;3.17;;;2.63;;
5819;SDS011;2936;47.348;9.640;2022-09-09T02:55:14;5.50;;;3.13;;
5819;SDS011;2936;47.348;9.640;2022-09-09T02:57:43;3.67;;;2.43;;
5819;SDS011;2936;47.348;9.640;2022-09-09T03:00:12;7.60;;;2.70;;
5819;SDS011;2936;47.348;9.640;2022-09-09T03:02:40;2.90;;;2.67;;
5819;SDS011;2936;47.348;9.640;2022-09-09T03:05:08;3.80;;;2.40;;
5819;SDS011;2936;47.348;9.640;2022-09-09T03:07:37;2.60;;;2.50;;
5819;SDS011;2936;47.348;9.640;2022-09-09T03:10:05;2.80;;;2.40;;
5819;SDS011;2936;47.348;9.640;2022-09-09T03:12:33;3.00;;;2.50;;
5819;SDS011;2936;47.348;9.640;2022-09-09T03:15:00;4.70;;;2.53;;
5819;SDS011;2936;47.348;9.640;2022-09-09T03:17:27;10.13;;;3.10;;
5819;SDS011;2936;47.348;9.640;2022-09-09T03:19:55;3.00;;;2.20;;
5819;SDS011;2936;47.348;9.640;2022-09-09T03:22:23;3.00;;;2.80;;
5819;SDS011;2936;47.348;9.640;2022-09-09T03:24:53;3.80;;;2.80;;
5819;SDS011;2936;47.348;9.640;2022-09-09T03:27:20;2.87;;;2.63;;
5819;SDS011;2936;47.348;9.640;2022-09-09T03:29:48;2.87;;;2.77;;
5819;SDS011;2936;47.348;9.640;2022-09-09T03:32:16;2.80;;;2.60;;
5819;SDS011;2936;47.348;9.640;2022-09-09T03:34:44;3.53;;;3.23;;
5819;SDS011;2936;47.348;9.640;2022-09-09T03:37:12;3.23;;;2.93;;
5819;SDS011;2936;47.348;9.640;2022-09-09T03:39:40;4.30;;;2.57;;
5819;SDS011;2936;47.348;9.640;2022-09-09T03:42:09;3.73;;;3.20;;
5819;SDS011;2936;47.348;9.640;2022-09-09T03:44:36;4.03;;;2.87;;
5819;SDS011;2936;47.348;9.640;2022-09-09T03:47:04;8.20;;;3.57;;
5819;SDS011;2936;47.348;9.640;2022-09-09T03:49:31;3.63;;;3.17;;
5819;SDS011;2936;47.348;9.640;2022-09-09T03:51:59;3.10;;;2.90;;
5819;SDS011;2936;47.348;9.640;2022-09-09T03:54:26;4.87;;;3.37;;
5819;SDS011;2936;47.348;9.640;2022-09-09T03:56:54;3.37;;;3.17;;
5819;SDS011;2936;47.348;9.640;2022-09-09T03:59:23;2.47;;;2.37;;
5819;SDS011;2936;47.348;9.640;2022-09-09T04:01:50;3.13;;;2.93;;
5819;SDS011;2936;47.348;9.640;2022-09-09T04:04:18;3.93;;;3.57;;
5819;SDS011;2936;47.348;9.640;2022-09-09T04:06:45;3.53;;;3.10;;
5819;SDS011;2936;47.348;9.640;2022-09-09T04:09:13;10.80;;;3.70;;
5819;SDS011;2936;47.348;9.640;2022-09-09T04:11:41;6.90;;;3.10;;
5819;SDS011;2936;47.348;9.640;2022-09-09T04:14:08;3.93;;;3.27;;
5819;SDS011;2936;47.348;9.640;2022-09-09T04:16:37;4.50;;;3.93;;
5819;SDS011;2936;47.348;9.640;2022-09-09T04:19:12;5.30;;;3.20;;
5819;SDS011;2936;47.348;9.640;2022-09-09T04:21:40;6.77;;;3.60;;
5819;SDS011;2936;47.348;9.640;2022-09-09T04:24:09;5.13;;;3.60;;
5819;SDS011;2936;47.348;9.640;2022-09-09T04:26:37;4.00;;;3.70;;
5819;SDS011;2936;47.348;9.640;2022-09-09T04:29:04;8.33;;;4.30;;
5819;SDS011;2936;47.348;9.640;2022-09-09T04:31:32;5.57;;;4.10;;
5819;SDS011;2936;47.348;9.640;2022-09-09T04:34:01;7.10;;;4.13;;
5819;SDS011;2936;47.348;9.640;2022-09-09T04:36:30;8.57;;;3.73;;
5819;SDS011;2936;47.348;9.640;2022-09-09T04:38:58;4.70;;;3.60;;
5819;SDS011;2936;47.348;9.640;2022-09-09T04:41:26;3.80;;;3.60;;
5819;SDS011;2936;47.348;9.640;2022-09-09T04:43:56;4.00;;;3.27;;
5819;SDS011;2936;47.348;9.640;2022-09-09T04:46:25;3.83;;;3.40;;
5819;SDS011;2936;47.348;9.640;2022-09-09T04:48:52;3.73;;;3.27;;
5819;SDS011;2936;47.348;9.640;2022-09-09T04:51:21;9.83;;;3.93;;
5819;SDS011;2936;47.348;9.640;2022-09-09T04:53:49;6.30;;;4.30;;
5819;SDS011;2936;47.348;9.640;2022-09-09T04:56:19;8.73;;;3.70;;
5819;SDS011;2936;47.348;9.640;2022-09-09T04:58:51;5.07;;;3.27;;
5819;SDS011;2936;47.348;9.640;2022-09-09T05:01:20;7.33;;;3.40;;
5819;SDS011;2936;47.348;9.640;2022-09-09T05:03:49;3.50;;;3.13;;
5819;SDS011;2936;47.348;9.640;2022-09-09T05:06:17;4.17;;;3.00;;
5819;SDS011;2936;47.348;9.640;2022-09-09T05:08:47;2.90;;;2.70;;
5819;SDS011;2936;47.348;9.640;2022-09-09T05:11:15;3.47;;;2.70;;
5819;SDS011;2936;47.348;9.640;2022-09-09T05:13:43;3.70;;;2.73;;
5819;SDS011;2936;47.348;9.640;2022-09-09T05:16:11;3.10;;;2.77;;
5819;SDS011;2936;47.348;9.640;2022-09-09T05:18:38;7.57;;;2.90;;
5819;SDS011;2936;47.348;9.640;2022-09-09T05:21:07;13.43;;;2.30;;
5819;SDS011;2936;47.348;9.640;2022-09-09T05:23:35;4.60;;;3.00;;
5819;SDS011;2936;47.348;9.640;2022-09-09T05:26:08;4.47;;;2.20;;
5819;SDS011;2936;47.348;9.640;2022-09-09T05:28:36;9.70;;;2.60;;
5819;SDS011;2936;47.348;9.640;2022-09-09T05:31:04;5.90;;;2.10;;
5819;SDS011;2936;47.348;9.640;2022-09-09T05:33:34;2.10;;;2.00;;
5819;SDS011;2936;47.348;9.640;2022-09-09T05:36:02;3.63;;;2.17;;
5819;SDS011;2936;47.348;9.640;2022-09-09T05:38:30;4.17;;;2.53;;
5819;SDS011;2936;47.348;9.640;2022-09-09T05:40:58;5.60;;;2.43;;
5819;SDS011;2936;47.348;9.640;2022-09-09T05:43:29;3.73;;;2.40;;
5819;SDS011;2936;47.348;9.640;2022-09-09T05:46:01;9.73;;;3.10;;
5819;SDS011;2936;47.348;9.640;2022-09-09T05:48:29;4.10;;;2.47;;
5819;SDS011;2936;47.348;9.640;2022-09-09T05:50:57;4.77;;;2.20;;
5819;SDS011;2936;47.348;9.640;2022-09-09T05:53:25;2.57;;;2.40;;
5819;SDS011;2936;47.348;9.640;2022-09-09T05:55:58;4.57;;;3.10;;
5819;SDS011;2936;47.348;9.640;2022-09-09T05:58:25;2.40;;;2.20;;
5819;SDS011;2936;47.348;9.640;2022-09-09T06:00:59;3.87;;;2.50;;
5819;SDS011;2936;47.348;9.640;2022-09-09T06:03:27;3.83;;;2.17;;
5819;SDS011;2936;47.348;9.640;2022-09-09T06:05:58;3.90;;;2.47;;
5819;SDS011;2936;47.348;9.640;2022-09-09T06:08:25;4.40;;;2.07;;
5819;SDS011;2936;47.348;9.640;2022-09-09T06:10:53;4.97;;;2.17;;
5819;SDS011;2936;47.348;9.640;2022-09-09T06:13:21;9.80;;;2.20;;
5819;SDS011;2936;47.348;9.640;2022-09-09T06:15:49;2.90;;;2.20;;
5819;SDS011;2936;47.348;9.640;2022-09-09T06:18:20;2.37;;;2.13;;
5819;SDS011;2936;47.348;9.640;2022-09-09T06:20:58;5.60;;;2.50;;
5819;SDS011;2936;47.348;9.640;2022-09-09T06:23:26;4.73;;;2.63;;
5819;SDS011;2936;47.348;9.640;2022-09-09T06:26:00;4.43;;;2.13;;
5819;SDS011;2936;47.348;9.640;2022-09-09T06:28:28;2.30;;;2.17;;
5819;SDS011;2936;47.348;9.640;2022-09-09T06:30:57;3.90;;;2.00;;
5819;SDS011;2936;47.348;9.640;2022-09-09T06:33:30;2.20;;;2.10;;
5819;SDS011;2936;47.348;9.640;2022-09-09T06:36:01;4.20;;;2.13;;
5819;SDS011;2936;47.348;9.640;2022-09-09T06:38:30;5.70;;;2.53;;
5819;SDS011;2936;47.348;9.640;2022-09-09T06:40:58;2.80;;;2.10;;
5819;SDS011;2936;47.348;9.640;2022-09-09T06:43:32;2.27;;;2.17;;
5819;SDS011;2936;47.348;9.640;2022-09-09T06:46:04;3.03;;;1.77;;
5819;SDS011;2936;47.348;9.640;2022-09-09T06:48:34;2.67;;;1.67;;
5819;SDS011;2936;47.348;9.640;2022-09-09T06:51:03;2.20;;;1.90;;
5819;SDS011;2936;47.348;9.640;2022-09-09T06:53:31;2.10;;;1.90;;
5819;SDS011;2936;47.348;9.640;2022-09-09T06:55:59;6.83;;;2.40;;
5819;SDS011;2936;47.348;9.640;2022-09-09T06:58:30;4.07;;;2.90;;
5819;SDS011;2936;47.348;9.640;2022-09-09T07:01:05;3.57;;;2.47;;
5819;SDS011;2936;47.348;9.640;2022-09-09T07:03:35;5.03;;;2.13;;
5819;SDS011;2936;47.348;9.640;2022-09-09T07:06:03;3.83;;;2.30;;
5819;SDS011;2936;47.348;9.640;2022-09-09T07:08:31;10.90;;;2.40;;
5819;SDS011;2936;47.348;9.640;2022-09-09T07:11:01;4.27;;;2.80;;
5819;SDS011;2936;47.348;9.640;2022-09-09T07:13:31;4.90;;;2.90;;
5819;SDS011;2936;47.348;9.640;2022-09-09T07:16:03;3.23;;;2.80;;
5819;SDS011;2936;47.348;9.640;2022-09-09T07:18:32;6.67;;;2.30;;
5819;SDS011;2936;47.348;9.640;2022-09-09T07:21:02;3.63;;;2.13;;
5819;SDS011;2936;47.348;9.640;2022-09-09T07:23:30;3.97;;;2.50;;
5819;SDS011;2936;47.348;9.640;2022-09-09T07:25:58;2.10;;;1.90;;
5819;SDS011;2936;47.348;9.640;2022-09-09T07:28:26;3.90;;;2.13;;
5819;SDS011;2936;47.348;9.640;2022-09-09T07:30:56;5.80;;;2.27;;
5819;SDS011;2936;47.348;9.640;2022-09-09T07:33:24;2.60;;;2.40;;
5819;SDS011;2936;47.348;9.640;2022-09-09T07:35:51;2.30;;;2.13;;
5819;SDS011;2936;47.348;9.640;2022-09-09T07:38:23;5.40;;;2.57;;
5819;SDS011;2936;47.348;9.640;2022-09-09T07:40:52;2.17;;;2.07;;
5819;SDS011;2936;47.348;9.640;2022-09-09T07:43:27;11.70;;;2.13;;
5819;SDS011;2936;47.348;9.640;2022-09-09T07:45:57;3.90;;;2.23;;
5819;SDS011;2936;47.348;9.640;2022-09-09T07:48:25;3.00;;;2.67;;
5819;SDS011;2936;47.348;9.640;2022-09-09T07:50:52;7.87;;;1.90;;
5819;SDS011;2936;47.348;9.640;2022-09-09T07:53:21;4.60;;;2.30;;
5819;SDS011;2936;47.348;9.640;2022-09-09T07:55:49;4.50;;;2.17;;
5819;SDS011;2936;47.348;9.640;2022-09-09T07:58:16;8.03;;;2.67;;
5819;SDS011;2936;47.348;9.640;2022-09-09T08:00:44;2.47;;;2.20;;
5819;SDS011;2936;47.348;9.640;2022-09-09T08:03:12;5.63;;;2.47;;
5819;SDS011;2936;47.348;9.640;2022-09-09T08:05:40;2.53;;;2.33;;
5819;SDS011;2936;47.348;9.640;2022-09-09T08:08:09;3.10;;;2.60;;
5819;SDS011;2936;47.348;9.640;2022-09-09T08:10:40;4.43;;;2.73;;
5819;SDS011;2936;47.348;9.640;2022-09-09T08:13:08;8.13;;;5.67;;
5819;SDS011;2936;47.348;9.640;2022-09-09T08:15:36;2.70;;;2.50;;
5819;SDS011;2936;47.348;9.640;2022-09-09T08:18:03;8.97;;;2.67;;
5819;SDS011;2936;47.348;9.640;2022-09-09T08:20:31;7.27;;;2.57;;
5819;SDS011;2936;47.348;9.640;2022-09-09T08:22:59;9.40;;;3.20;;
5819;SDS011;2936;47.348;9.640;2022-09-09T08:25:26;8.43;;;3.40;;
5819;SDS011;2936;47.348;9.640;2022-09-09T08:27:55;8.70;;;2.50;;
5819;SDS011;2936;47.348;9.640;2022-09-09T08:30:23;5.03;;;3.30;;
5819;SDS011;2936;47.348;9.640;2022-09-09T08:32:51;8.23;;;3.40;;
5819;SDS011;2936;47.348;9.640;2022-09-09T08:35:19;3.37;;;2.57;;
5819;SDS011;2936;47.348;9.640;2022-09-09T08:37:47;4.53;;;2.90;;
5819;SDS011;2936;47.348;9.640;2022-09-09T08:40:17;5.37;;;3.50;;
5819;SDS011;2936;47.348;9.640;2022-09-09T08:42:48;5.60;;;2.90;;
5819;SDS011;2936;47.348;9.640;2022-09-09T08:45:30;5.30;;;2.60;;
5819;SDS011;2936;47.348;9.640;2022-09-09T08:48:03;4.40;;;3.20;;
5819;SDS011;2936;47.348;9.640;2022-09-09T08:50:36;5.43;;;3.60;;
5819;SDS011;2936;47.348;9.640;2022-09-09T08:53:05;4.87;;;3.00;;
5819;SDS011;2936;47.348;9.640;2022-09-09T08:55:39;5.03;;;3.50;;
5819;SDS011;2936;47.348;9.640;2022-09-09T08:58:11;7.30;;;3.30;;
5819;SDS011;2936;47.348;9.640;2022-09-09T09:00:42;7.30;;;3.73;;
5819;SDS011;2936;47.348;9.640;2022-09-09T09:03:13;5.83;;;3.30;;
5819;SDS011;2936;47.348;9.640;2022-09-09T09:05:44;7.83;;;3.83;;
5819;SDS011;2936;47.348;9.640;2022-09-09T09:08:16;4.67;;;3.07;;
5819;SDS011;2936;47.348;9.640;2022-09-09T09:10:46;7.60;;;3.50;;
5819;SDS011;2936;47.348;9.640;2022-09-09T09:13:15;7.37;;;3.33;;
5819;SDS011;2936;47.348;9.640;2022-09-09T09:15:48;5.93;;;3.60;;
5819;SDS011;2936;47.348;9.640;2022-09-09T09:18:17;10.53;;;4.83;;
5819;SDS011;2936;47.348;9.640;2022-09-09T09:20:48;4.10;;;3.90;;
5819;SDS011;2936;47.348;9.640;2022-09-09T09:23:20;4.20;;;3.30;;
5819;SDS011;2936;47.348;9.640;2022-09-09T09:25:48;6.13;;;2.90;;
5819;SDS011;2936;47.348;9.640;2022-09-09T09:28:18;5.03;;;3.23;;
5819;SDS011;2936;47.348;9.640;2022-09-09T09:30:49;5.53;;;4.13;;
5819;SDS011;2936;47.348;9.640;2022-09-09T09:33:18;9.70;;;3.73;;
5819;SDS011;2936;47.348;9.640;2022-09-09T09:35:48;6.07;;;3.90;;
5819;SDS011;2936;47.348;9.640;2022-09-09T09:38:19;6.37;;;2.80;;
5819;SDS011;2936;47.348;9.640;2022-09-09T09:40:51;6.73;;;2.63;;
5819;SDS011;2936;47.348;9.640;2022-09-09T09:43:24;4.83;;;2.33;;
5819;SDS011;2936;47.348;9.640;2022-09-09T09:45:55;3.40;;;2.20;;
5819;SDS011;2936;47.348;9.640;2022-09-09T09:48:25;4.50;;;2.70;;
5819;SDS011;2936;47.348;9.640;2022-09-09T09:51:01;5.83;;;3.20;;
5819;SDS011;2936;47.348;9.640;2022-09-09T09:53:37;4.00;;;3.50;;
5819;SDS011;2936;47.348;9.640;2022-09-09T09:56:06;3.23;;;2.93;;
5819;SDS011;2936;47.348;9.640;2022-09-09T09:58:37;3.53;;;3.23;;
5819;SDS011;2936;47.348;9.640;2022-09-09T10:01:19;3.77;;;3.43;;
5819;SDS011;2936;47.348;9.640;2022-09-09T10:03:50;4.37;;;3.00;;
5819;SDS011;2936;47.348;9.640;2022-09-09T10:06:29;4.77;;;3.73;;
5819;SDS011;2936;47.348;9.640;2022-09-09T10:08:58;3.20;;;2.73;;
5819;SDS011;2936;47.348;9.640;2022-09-09T10:11:30;3.63;;;2.50;;
5819;SDS011;2936;47.348;9.640;2022-09-09T10:14:00;4.13;;;2.43;;
5819;SDS011;2936;47.348;9.640;2022-09-09T10:16:38;4.77;;;2.47;;
5819;SDS011;2936;47.348;9.640;2022-09-09T10:19:09;3.63;;;2.17;;
5819;SDS011;2936;47.348;9.640;2022-09-09T10:24:41;2.13;;;1.83;;
5819;SDS011;2936;47.348;9.640;2022-09-09T10:27:18;2.27;;;1.73;;
5819;SDS011;2936;47.348;9.640;2022-09-09T10:32:39;2.17;;;1.97;;
5819;SDS011;2936;47.348;9.640;2022-09-09T10:35:12;2.03;;;1.93;;
5819;SDS011;2936;47.348;9.640;2022-09-09T10:37:48;2.13;;;2.03;;
5819;SDS011;2936;47.348;9.640;2022-09-09T10:40:22;2.03;;;1.83;;
5819;SDS011;2936;47.348;9.640;2022-09-09T10:42:58;2.23;;;2.10;;
5819;SDS011;2936;47.348;9.640;2022-09-09T10:45:28;2.13;;;1.73;;
5819;SDS011;2936;47.348;9.640;2022-09-09T10:48:08;4.40;;;1.60;;
5819;SDS011;2936;47.348;9.640;2022-09-09T10:50:40;1.83;;;1.73;;
5819;SDS011;2936;47.348;9.640;2022-09-09T10:53:14;3.80;;;1.90;;
5819;SDS011;2936;47.348;9.640;2022-09-09T10:55:45;3.00;;;1.80;;
5819;SDS011;2936;47.348;9.640;2022-09-09T10:58:23;2.53;;;2.20;;
5819;SDS011;2936;47.348;9.640;2022-09-09T11:00:56;2.40;;;2.20;;
5819;SDS011;2936;47.348;9.640;2022-09-09T11:03:29;3.70;;;1.10;;
5819;SDS011;2936;47.348;9.640;2022-09-09T11:06:03;2.00;;;1.80;;
5819;SDS011;2936;47.348;9.640;2022-09-09T11:08:38;9.50;;;2.50;;
5819;SDS011;2936;47.348;9.640;2022-09-09T11:11:12;2.57;;;2.30;;
5819;SDS011;2936;47.348;9.640;2022-09-09T11:13:45;2.23;;;1.77;;
5819;SDS011;2936;47.348;9.640;2022-09-09T11:16:19;2.20;;;2.00;;
5819;SDS011;2936;47.348;9.640;2022-09-09T11:18:50;3.83;;;2.00;;
5819;SDS011;2936;47.348;9.640;2022-09-09T11:21:19;1.90;;;1.80;;
5819;SDS011;2936;47.348;9.640;2022-09-09T11:23:52;3.27;;;1.73;;
5819;SDS011;2936;47.348;9.640;2022-09-09T11:26:25;2.07;;;1.87;;
5819;SDS011;2936;47.348;9.640;2022-09-09T11:29:08;3.63;;;1.90;;
5819;SDS011;2936;47.348;9.640;2022-09-09T11:31:52;3.43;;;1.90;;
5819;SDS011;2936;47.348;9.640;2022-09-09T11:34:31;2.10;;;2.00;;
5819;SDS011;2936;47.348;9.640;2022-09-09T11:37:16;3.13;;;2.20;;
5819;SDS011;2936;47.348;9.640;2022-09-09T11:42:42;2.80;;;2.50;;
5819;SDS011;2936;47.348;9.640;2022-09-09T11:45:21;5.70;;;2.23;;
5819;SDS011;2936;47.348;9.640;2022-09-09T11:47:54;2.13;;;2.03;;
5819;SDS011;2936;47.348;9.640;2022-09-09T11:50:31;1.80;;;1.70;;
5819;SDS011;2936;47.348;9.640;2022-09-09T11:53:03;1.57;;;1.47;;
5819;SDS011;2936;47.348;9.640;2022-09-09T11:55:34;3.43;;;2.17;;
5819;SDS011;2936;47.348;9.640;2022-09-09T11:58:05;1.70;;;1.60;;
5819;SDS011;2936;47.348;9.640;2022-09-09T12:00:51;1.50;;;1.40;;
5819;SDS011;2936;47.348;9.640;2022-09-09T12:03:49;1.80;;;1.70;;
5819;SDS011;2936;47.348;9.640;2022-09-09T12:06:24;1.70;;;1.53;;
5819;SDS011;2936;47.348;9.640;2022-09-09T12:09:05;1.50;;;1.40;;
5819;SDS011;2936;47.348;9.640;2022-09-09T12:11:37;1.30;;;1.30;;
5819;SDS011;2936;47.348;9.640;2022-09-09T12:14:19;2.20;;;2.10;;
5819;SDS011;2936;47.348;9.640;2022-09-09T12:16:50;2.10;;;1.53;;
5819;SDS011;2936;47.348;9.640;2022-09-09T12:22:26;2.90;;;1.83;;
5819;SDS011;2936;47.348;9.640;2022-09-09T12:24:58;1.50;;;1.40;;
5819;SDS011;2936;47.348;9.640;2022-09-09T12:27:31;2.40;;;2.20;;
5819;SDS011;2936;47.348;9.640;2022-09-09T12:30:03;1.40;;;1.30;;
5819;SDS011;2936;47.348;9.640;2022-09-09T12:32:31;2.30;;;2.10;;
5819;SDS011;2936;47.348;9.640;2022-09-09T12:35:00;1.80;;;1.70;;
5819;SDS011;2936;47.348;9.640;2022-09-09T12:37:38;2.03;;;1.60;;
5819;SDS011;2936;47.348;9.640;2022-09-09T12:40:18;3.40;;;1.63;;
5819;SDS011;2936;47.348;9.640;2022-09-09T12:42:46;3.33;;;1.67;;
5819;SDS011;2936;47.348;9.640;2022-09-09T12:45:18;3.23;;;1.87;;
5819;SDS011;2936;47.348;9.640;2022-09-09T12:47:50;4.17;;;1.87;;
5819;SDS011;2936;47.348;9.640;2022-09-09T12:50:19;3.00;;;1.37;;
5819;SDS011;2936;47.348;9.640;2022-09-09T12:52:52;2.70;;;1.70;;
5819;SDS011;2936;47.348;9.640;2022-09-09T12:55:24;2.03;;;1.80;;
5819;SDS011;2936;47.348;9.640;2022-09-09T12:57:55;1.63;;;1.30;;
5819;SDS011;2936;47.348;9.640;2022-09-09T13:00:24;4.97;;;1.70;;
5819;SDS011;2936;47.348;9.640;2022-09-09T13:02:52;1.80;;;1.70;;
5819;SDS011;2936;47.348;9.640;2022-09-09T13:05:21;1.47;;;1.40;;
5819;SDS011;2936;47.348;9.640;2022-09-09T13:07:49;1.57;;;1.47;;
5819;SDS011;2936;47.348;9.640;2022-09-09T13:10:21;1.10;;;1.10;;
5819;SDS011;2936;47.348;9.640;2022-09-09T13:12:50;1.50;;;1.40;;
5819;SDS011;2936;47.348;9.640;2022-09-09T13:15:19;3.53;;;1.70;;
5819;SDS011;2936;47.348;9.640;2022-09-09T13:17:51;1.47;;;1.37;;
5819;SDS011;2936;47.348;9.640;2022-09-09T13:20:22;1.63;;;1.50;;
5819;SDS011;2936;47.348;9.640;2022-09-09T13:22:50;4.40;;;1.80;;
5819;SDS011;2936;47.348;9.640;2022-09-09T13:25:21;1.83;;;1.60;;
5819;SDS011;2936;47.348;9.640;2022-09-09T13:27:54;1.93;;;1.50;;
5819;SDS011;2936;47.348;9.640;2022-09-09T13:30:23;1.53;;;1.27;;
5819;SDS011;2936;47.348;9.640;2022-09-09T13:33:01;2.60;;;1.60;;
5819;SDS011;2936;47.348;9.640;2022-09-09T13:35:29;2.53;;;1.50;;
5819;SDS011;2936;47.348;9.640;2022-09-09T13:37:57;1.47;;;1.37;;
5819;SDS011;2936;47.348;9.640;2022-09-09T13:40:27;1.30;;;1.30;;
5819;SDS011;2936;47.348;9.640;2022-09-09T13:42:56;1.73;;;1.40;;
5819;SDS011;2936;47.348;9.640;2022-09-09T13:45:25;1.40;;;1.30;;
5819;SDS011;2936;47.348;9.640;2022-09-09T13:47:53;2.13;;;1.73;;
5819;SDS011;2936;47.348;9.640;2022-09-09T13:50:22;1.63;;;1.40;;
5819;SDS011;2936;47.348;9.640;2022-09-09T13:52:50;1.67;;;1.57;;
5819;SDS011;2936;47.348;9.640;2022-09-09T13:55:24;1.47;;;1.27;;
5819;SDS011;2936;47.348;9.640;2022-09-09T14:00:40;2.13;;;1.50;;
5819;SDS011;2936;47.348;9.640;2022-09-09T14:03:11;1.30;;;1.20;;
5819;SDS011;2936;47.348;9.640;2022-09-09T14:05:39;1.63;;;1.53;;
5819;SDS011;2936;47.348;9.640;2022-09-09T14:08:09;6.00;;;1.40;;
5819;SDS011;2936;47.348;9.640;2022-09-09T14:10:42;2.17;;;1.60;;
5819;SDS011;2936;47.348;9.640;2022-09-09T14:13:15;1.87;;;1.20;;
5819;SDS011;2936;47.348;9.640;2022-09-09T14:15:44;2.07;;;1.80;;
5819;SDS011;2936;47.348;9.640;2022-09-09T14:18:12;1.83;;;1.30;;
5819;SDS011;2936;47.348;9.640;2022-09-09T14:20:45;1.43;;;1.37;;
5819;SDS011;2936;47.348;9.640;2022-09-09T14:23:15;1.17;;;1.17;;
5819;SDS011;2936;47.348;9.640;2022-09-09T14:25:46;3.77;;;1.23;;
5819;SDS011;2936;47.348;9.640;2022-09-09T14:28:14;1.40;;;1.30;;
5819;SDS011;2936;47.348;9.640;2022-09-09T14:30:42;3.43;;;1.30;;
5819;SDS011;2936;47.348;9.640;2022-09-09T14:33:11;1.30;;;1.20;;
5819;SDS011;2936;47.348;9.640;2022-09-09T14:35:39;1.67;;;1.57;;
5819;SDS011;2936;47.348;9.640;2022-09-09T14:38:07;1.43;;;1.33;;
5819;SDS011;2936;47.348;9.640;2022-09-09T14:40:36;1.93;;;1.40;;
5819;SDS011;2936;47.348;9.640;2022-09-09T14:43:13;1.50;;;1.40;;
5819;SDS011;2936;47.348;9.640;2022-09-09T14:45:44;1.70;;;1.30;;
5819;SDS011;2936;47.348;9.640;2022-09-09T14:48:14;1.37;;;1.23;;
5819;SDS011;2936;47.348;9.640;2022-09-09T14:50:42;4.13;;;1.40;;
5819;SDS011;2936;47.348;9.640;2022-09-09T14:53:10;1.80;;;1.70;;
5819;SDS011;2936;47.348;9.640;2022-09-09T14:55:38;1.60;;;1.50;;
5819;SDS011;2936;47.348;9.640;2022-09-09T14:58:05;1.50;;;1.20;;
5819;SDS011;2936;47.348;9.640;2022-09-09T15:00:32;3.50;;;1.23;;
5819;SDS011;2936;47.348;9.640;2022-09-09T15:03:00;1.53;;;1.10;;
5819;SDS011;2936;47.348;9.640;2022-09-09T15:05:29;1.57;;;1.30;;
5819;SDS011;2936;47.348;9.640;2022-09-09T15:07:57;1.40;;;1.30;;
5819;SDS011;2936;47.348;9.640;2022-09-09T15:10:24;2.70;;;1.70;;
5819;SDS011;2936;47.348;9.640;2022-09-09T15:12:52;1.80;;;1.40;;
5819;SDS011;2936;47.348;9.640;2022-09-09T15:15:20;1.80;;;1.70;;
5819;SDS011;2936;47.348;9.640;2022-09-09T15:17:47;1.70;;;1.60;;
5819;SDS011;2936;47.348;9.640;2022-09-09T15:20:14;1.73;;;1.60;;
5819;SDS011;2936;47.348;9.640;2022-09-09T15:22:43;1.50;;;1.50;;
5819;SDS011;2936;47.348;9.640;2022-09-09T15:25:11;1.70;;;1.60;;
5819;SDS011;2936;47.348;9.640;2022-09-09T15:27:38;1.60;;;1.50;;
5819;SDS011;2936;47.348;9.640;2022-09-09T15:30:06;1.73;;;1.63;;
5819;SDS011;2936;47.348;9.640;2022-09-09T15:32:34;3.90;;;1.40;;
5819;SDS011;2936;47.348;9.640;2022-09-09T15:35:01;1.63;;;1.30;;
5819;SDS011;2936;47.348;9.640;2022-09-09T15:37:30;2.97;;;1.67;;
5819;SDS011;2936;47.348;9.640;2022-09-09T15:39:59;2.90;;;1.50;;
5819;SDS011;2936;47.348;9.640;2022-09-09T15:42:26;6.90;;;1.30;;
5819;SDS011;2936;47.348;9.640;2022-09-09T15:44:55;1.40;;;1.30;;
5819;SDS011;2936;47.348;9.640;2022-09-09T15:47:22;2.00;;;1.20;;
5819;SDS011;2936;47.348;9.640;2022-09-09T15:49:50;1.47;;;1.37;;